sim
Sign-in with your pilot id or email,
or register
Callsign
Passwort

Schedule Details

Flight Number: OEO5831
Departure: Zurich Airport (LSZH) at 11:15
Arrival: Fuerteventura Airport (GCFV) at 15:55

Weather Information
Getting current METAR information for LSZH 160220Z VRB01KT 6000 MIFG NSC M03/M04 Q1030 TEMPO 4000 BR
Getting current METAR information for GCFV 160230Z AUTO 28005KT 9999 NCD 13/10 Q1018

Schedule Frequency

Route Map